Aérodrome :
LOGIN :

S'inscrire | Disclaimer

   EN    FR    IT 

 










Légende :    VFR   VFR Marginal   IFR   IFR Intensif   IFR Très Intensif
Visi : 
Plafond : 
>= 8 km
>= 3000ft
5 à 8 km
1000 à 3000 ft
1500m à 5 km
500 à 1000 ft
800 à 1500m
200 à 500 ft
< 800m
< 200 ft
Symboles :   Orages  Brouillard  Fortes neiges  Fortes précipitations  Vent > 20 kt
SIGMETs :   Divers  Orages  Givrage  Turbulence  Onde Orograph.  Cendres Volcan.







- Altitude de l'aérodrome : 503 ft
- Code IATA : BLE


ESSD - Borlange

DERNIER METAR :
  • 181620Z AUTO 19012KT 160V220 9999 DZ OVC023/// 16/12 Q1007

METARs EXPIRÉS :
  • 181550Z AUTO 19011KT 9999 OVC027/// 17/11 Q1008
  • 181520Z AUTO 20013KT 9999 BKN032/// OVC051/// 17/11 Q1008
  • 181450Z AUTO 20015KT 170V230 9999 BKN034/// OVC051/// 17/10 Q1008
  • 181420Z AUTO 20015KT 9999 BKN032/// OVC180/// 17/11 Q1009
  • 181350Z AUTO 21015G27KT 9999 OVC035/// 17/11 Q1010

Prévision TAF périmée.
Pas de NOTAMs connus pour ce terrain.



MET'MAP, la Météo Aéronautique d'un coup d'oeil ! - Copyright ORBIFLY Décembre 2007 - Disclaimer

ORBIFLY MET'MAP TEAM :

Programmation & Développement : Alexandra Zaïnal
Conception & Développement : Baudouin d'Aumeries
Co-Programmation & Développement : Marc-Olivier Méhu
Soutien technique & logistique : Manuel Goepfert

Contact : metmap@orbifly.com




SOURCES & CREDITS :

   NOAA